Time;durP1;ratioP1;P1;durP2;ratioP2;P2;SDS_P1;SDS_P2;PMS_P1;PMS_P2;Temp;Humidity;BMP_temperature;BMP_pressure;BME280_temperature;BME280_humidity;BME280_pressure;Samples;Min_cycle;Max_cycle;Signal;HPM_P1;HPM_P2
2021/12/08 00:00:59;;;;;;;7.10;1.60;;;4.70;99.90;;;;;;5039558;28;20036;-81
2021/12/08 00:03:28;;;;;;;9.07;1.80;;;4.70;99.90;;;;;;5038497;28;20037;-82
2021/12/08 00:05:54;;;;;;;7.23;1.70;;;4.70;99.90;;;;;;5038735;28;20382;-82
2021/12/08 00:08:22;;;;;;;5.57;1.57;;;4.70;99.90;;;;;;5038686;28;20478;-83
2021/12/08 00:13:03;;;;;;;6.17;1.80;;;4.70;99.90;;;;;;5040220;28;20248;-84
2021/12/08 00:13:37;;;;;;;12.97;1.80;;;4.70;99.90;;;;;;5042239;28;20056;-85
2021/12/08 00:16:10;;;;;;;9.30;1.83;;;4.70;99.90;;;;;;5026399;28;20033;-82
2021/12/08 00:18:45;;;;;;;5.93;2.03;;;4.70;99.90;;;;;;5044776;28;20025;-83
2021/12/08 00:21:13;;;;;;;7.93;2.00;;;4.70;99.90;;;;;;5047876;28;20097;-82
2021/12/08 00:23:38;;;;;;;6.10;1.83;;;4.70;99.90;;;;;;5044941;28;20037;-82
2021/12/08 00:26:05;;;;;;;5.90;1.53;;;4.80;99.90;;;;;;5043512;28;20036;-82
2021/12/08 00:28:30;;;;;;;8.50;1.93;;;4.80;99.90;;;;;;5043878;28;20030;-82
2021/12/08 00:30:59;;;;;;;6.90;2.73;;;4.80;99.90;;;;;;5044423;28;20029;-81
2021/12/08 00:33:27;;;;;;;6.80;2.00;;;4.90;99.90;;;;;;5044522;28;20026;-81
2021/12/08 00:35:54;;;;;;;8.33;2.23;;;4.90;99.90;;;;;;5044829;28;20060;-82
2021/12/08 00:38:20;;;;;;;5.63;2.00;;;4.90;99.90;;;;;;5043165;28;20025;-82
2021/12/08 00:40:48;;;;;;;5.73;2.50;;;5.00;99.90;;;;;;5044339;28;20040;-82
2021/12/08 00:43:15;;;;;;;5.57;2.50;;;5.00;99.90;;;;;;5045987;28;20026;-81
2021/12/08 00:45:41;;;;;;;7.53;2.43;;;5.10;99.90;;;;;;5044615;28;20052;-82
2021/12/08 00:48:07;;;;;;;5.10;2.47;;;5.10;99.90;;;;;;5044435;28;20056;-82
2021/12/08 00:50:35;;;;;;;7.07;2.73;;;5.20;99.90;;;;;;5044180;28;20052;-82
2021/12/08 00:53:01;;;;;;;4.53;2.40;;;5.20;99.90;;;;;;5044426;28;20021;-82
2021/12/08 00:55:27;;;;;;;6.70;2.87;;;5.30;99.90;;;;;;5045003;28;20030;-82
2021/12/08 00:57:53;;;;;;;7.90;3.10;;;5.40;99.90;;;;;;5044860;28;20025;-82
2021/12/08 01:00:24;;;;;;;6.10;2.70;;;5.50;99.90;;;;;;5044213;28;20033;-83
2021/12/08 01:02:50;;;;;;;4.93;1.80;;;5.50;99.90;;;;;;5043831;28;20030;-82
2021/12/08 01:05:19;;;;;;;3.50;1.50;;;5.60;99.90;;;;;;5044715;28;20025;-82
2021/12/08 01:07:46;;;;;;;6.67;1.40;;;5.70;99.90;;;;;;5043332;28;20087;-82
2021/12/08 01:10:19;;;;;;;3.10;1.00;;;5.80;99.90;;;;;;5044036;28;20033;-81
2021/12/08 01:12:45;;;;;;;2.75;0.90;;;5.80;99.90;;;;;;5045496;28;20021;-81
2021/12/08 01:15:10;;;;;;;1.70;0.60;;;5.90;99.90;;;;;;5045346;28;20021;-81
2021/12/08 01:17:38;;;;;;;3.37;0.50;;;6.10;99.90;;;;;;5030306;28;20025;-80
2021/12/08 01:20:07;;;;;;;2.77;0.50;;;6.10;99.90;;;;;;5052114;28;20041;-79
2021/12/08 01:22:33;;;;;;;1.00;0.50;;;6.20;99.90;;;;;;5048471;28;20036;-81
2021/12/08 01:24:59;;;;;;;1.17;0.50;;;6.30;99.90;;;;;;5043143;28;20045;-81
2021/12/08 01:27:24;;;;;;;2.60;0.53;;;6.40;99.90;;;;;;5026446;28;20038;-81
2021/12/08 01:29:50;;;;;;;1.60;0.50;;;6.40;99.90;;;;;;5042163;28;20026;-82
2021/12/08 01:32:16;;;;;;;2.23;0.50;;;6.50;99.90;;;;;;5024964;28;20034;-80
2021/12/08 01:34:42;;;;;;;2.60;0.50;;;6.50;99.90;;;;;;5042462;28;20025;-81
2021/12/08 01:37:07;;;;;;;1.40;0.40;;;6.60;99.90;;;;;;5026156;28;20040;-80
2021/12/08 01:39:33;;;;;;;2.00;0.50;;;6.60;99.90;;;;;;5059319;28;20036;-81
2021/12/08 01:41:59;;;;;;;1.47;0.40;;;6.60;99.90;;;;;;5048095;28;20029;-82
2021/12/08 01:47:09;;;;;;;0.87;0.30;;;6.60;99.90;;;;;;5043532;28;20145;-81
2021/12/08 01:49:34;;;;;;;2.07;0.60;;;6.60;99.90;;;;;;5043324;28;20061;-82
2021/12/08 01:52:00;;;;;;;2.23;0.60;;;6.60;99.90;;;;;;5025963;28;20053;-80
2021/12/08 01:54:26;;;;;;;1.47;0.40;;;6.60;99.90;;;;;;5043003;28;20029;-81
2021/12/08 01:56:52;;;;;;;1.87;0.43;;;6.70;99.90;;;;;;5041827;28;20025;-81
2021/12/08 01:59:18;;;;;;;2.53;0.57;;;6.80;99.90;;;;;;5041995;28;20033;-80
2021/12/08 02:01:45;;;;;;;1.83;0.40;;;6.70;99.90;;;;;;5043074;28;20108;-81
2021/12/08 02:04:11;;;;;;;1.13;0.50;;;6.70;99.90;;;;;;5025677;28;20033;-81
2021/12/08 02:06:43;;;;;;;2.73;0.47;;;6.70;99.90;;;;;;5041499;28;20029;-81
2021/12/08 02:09:16;;;;;;;2.43;0.70;;;6.80;99.90;;;;;;5041312;28;20021;-82
2021/12/08 02:11:46;;;;;;;3.42;0.65;;;6.70;99.90;;;;;;5024787;28;20056;-81
2021/12/08 02:14:14;;;;;;;2.40;0.40;;;6.70;99.90;;;;;;5041870;28;20071;-82
2021/12/08 02:16:40;;;;;;;3.77;0.50;;;6.80;99.90;;;;;;5042007;28;20017;-82
2021/12/08 02:19:06;;;;;;;2.40;0.50;;;6.80;99.90;;;;;;5025278;28;20025;-81
2021/12/08 02:21:35;;;;;;;1.87;0.40;;;6.80;99.90;;;;;;5025067;28;20041;-81
2021/12/08 02:24:04;;;;;;;4.97;0.50;;;6.90;99.90;;;;;;5041988;28;20026;-82
2021/12/08 02:26:31;;;;;;;4.73;0.60;;;6.90;99.90;;;;;;5042189;28;20044;-82
2021/12/08 02:28:58;;;;;;;2.23;0.40;;;7.00;99.90;;;;;;5025199;28;20029;-81
2021/12/08 02:31:37;;;;;;;1.47;0.40;;;7.00;99.90;;;;;;5041188;28;20032;-81
2021/12/08 02:50:20;;;;;;;4.60;0.80;;;7.00;99.90;;;;;;5041304;28;20122;-83
2021/12/08 02:52:46;;;;;;;2.47;0.77;;;6.90;99.90;;;;;;5040816;28;20025;-80
2021/12/08 02:55:12;;;;;;;1.30;0.33;;;6.90;99.90;;;;;;5024733;28;20148;-81
2021/12/08 02:57:39;;;;;;;1.97;0.40;;;6.80;99.90;;;;;;5040796;28;20036;-81
2021/12/08 03:00:07;;;;;;;3.87;0.40;;;6.90;99.90;;;;;;5039934;28;20033;-81
2021/12/08 03:02:33;;;;;;;2.37;0.40;;;6.90;99.90;;;;;;5042729;28;20021;-82
2021/12/08 03:04:59;;;;;;;4.27;0.67;;;6.90;99.90;;;;;;5040253;28;20476;-82
2021/12/08 03:07:25;;;;;;;5.80;0.60;;;6.90;99.90;;;;;;5023614;28;20026;-82
2021/12/08 03:09:51;;;;;;;6.07;0.70;;;6.90;99.90;;;;;;5056400;28;20029;-82
2021/12/08 03:12:27;;;;;;;2.57;0.47;;;6.90;99.90;;;;;;5022885;28;20033;-82
2021/12/08 03:14:53;;;;;;;3.73;0.60;;;6.90;99.90;;;;;;5041589;28;20022;-83
2021/12/08 03:17:19;;;;;;;3.13;0.40;;;6.80;99.90;;;;;;5040457;28;20044;-82
2021/12/08 03:19:46;;;;;;;7.60;0.60;;;6.80;99.90;;;;;;5040233;28;20124;-83
2021/12/08 03:22:13;;;;;;;4.13;0.50;;;6.70;99.90;;;;;;5041741;28;20103;-82
2021/12/08 03:24:42;;;;;;;4.90;0.53;;;6.70;99.90;;;;;;5042316;28;20025;-83
2021/12/08 03:27:12;;;;;;;3.10;0.50;;;6.60;99.90;;;;;;5024650;28;20048;-81
2021/12/08 03:29:48;;;;;;;5.93;0.53;;;6.60;99.90;;;;;;5040108;28;20042;-80
2021/12/08 03:32:17;;;;;;;5.60;0.50;;;6.60;99.90;;;;;;5040474;28;20067;-81
2021/12/08 03:34:51;;;;;;;4.70;0.53;;;6.60;99.90;;;;;;5039980;28;20025;-81
2021/12/08 03:37:22;;;;;;;4.80;0.70;;;6.60;99.90;;;;;;5040864;28;20053;-81
2021/12/08 03:39:50;;;;;;;5.93;0.97;;;6.60;99.90;;;;;;5056056;28;20033;-82
2021/12/08 03:42:17;;;;;;;5.97;0.70;;;6.70;99.90;;;;;;5023050;28;20029;-81
2021/12/08 03:44:43;;;;;;;4.87;0.50;;;6.60;99.90;;;;;;5038961;28;20051;-82
2021/12/08 03:47:15;;;;;;;5.93;0.80;;;6.70;99.90;;;;;;5039540;28;20501;-81
2021/12/08 03:49:43;;;;;;;3.70;0.43;;;6.70;99.90;;;;;;5039250;28;20025;-82
2021/12/08 03:52:09;;;;;;;7.00;0.60;;;6.70;99.90;;;;;;5038968;28;20036;-81
2021/12/08 03:54:35;;;;;;;5.00;0.50;;;6.70;99.90;;;;;;5037845;28;20028;-82
2021/12/08 03:57:01;;;;;;;3.23;0.50;;;6.70;99.90;;;;;;5021450;28;20026;-82
2021/12/08 03:59:27;;;;;;;6.77;0.60;;;6.60;99.90;;;;;;5022901;28;20065;-80
2021/12/08 04:01:52;;;;;;;4.30;0.50;;;6.60;99.90;;;;;;5023016;28;20033;-80
2021/12/08 04:04:19;;;;;;;4.53;0.40;;;6.60;99.90;;;;;;5038808;28;20037;-80
2021/12/08 04:06:49;;;;;;;6.63;0.50;;;6.60;99.90;;;;;;5039263;28;20124;-82
2021/12/08 04:09:25;;;;;;;6.60;0.70;;;6.60;99.90;;;;;;5023018;28;20053;-81
2021/12/08 04:11:50;;;;;;;3.97;0.50;;;6.60;99.90;;;;;;5024849;28;20061;-82
2021/12/08 04:14:20;;;;;;;8.50;0.67;;;6.60;99.90;;;;;;5038525;28;20041;-81
2021/12/08 04:16:51;;;;;;;6.63;0.60;;;6.70;99.90;;;;;;5038073;28;20037;-83
2021/12/08 04:19:18;;;;;;;9.50;0.70;;;6.70;99.90;;;;;;5040258;28;20026;-81
2021/12/08 04:21:44;;;;;;;4.23;0.47;;;6.80;99.90;;;;;;5022005;28;20034;-82
2021/12/08 04:24:11;;;;;;;4.30;0.40;;;6.90;99.90;;;;;;5038943;28;20033;-80
2021/12/08 04:26:52;;;;;;;5.87;0.70;;;6.90;99.90;;;;;;5038095;28;20038;-81
2021/12/08 04:29:21;;;;;;;6.57;0.50;;;6.90;99.90;;;;;;5040198;28;20029;-80
2021/12/08 04:31:49;;;;;;;4.90;0.60;;;6.90;99.90;;;;;;5040197;28;20034;-81
2021/12/08 04:34:27;;;;;;;3.67;0.60;;;6.80;99.90;;;;;;5055789;28;20412;-81
2021/12/08 04:36:55;;;;;;;8.10;0.50;;;6.80;99.90;;;;;;5038901;28;20025;-82
2021/12/08 04:39:38;;;;;;;3.20;0.40;;;6.70;99.90;;;;;;5038772;28;20026;-82
2021/12/08 04:42:09;;;;;;;3.50;0.40;;;6.60;99.90;;;;;;5039524;28;20018;-82
2021/12/08 04:44:46;;;;;;;6.37;0.57;;;6.50;99.90;;;;;;5024199;28;20056;-83
2021/12/08 04:53:02;;;;;;;5.53;0.50;;;6.30;99.90;;;;;;5042163;28;20110;-82
2021/12/08 05:01:17;;;;;;;5.70;0.70;;;6.10;99.90;;;;;;5041380;28;20044;-82
2021/12/08 05:09:18;;;;;;;7.83;0.80;;;6.00;99.90;;;;;;5044402;28;20107;-82
2021/12/08 05:11:49;;;;;;;4.43;0.70;;;5.90;99.90;;;;;;5044067;28;20029;-82
2021/12/08 05:14:24;;;;;;;6.73;0.90;;;5.90;99.90;;;;;;5042542;28;20026;-82
2021/12/08 05:16:58;;;;;;;12.47;1.47;;;5.90;99.90;;;;;;5043525;28;20025;-83
2021/12/08 05:19:27;;;;;;;8.57;0.90;;;5.90;99.90;;;;;;5044773;28;20112;-82
2021/12/08 05:21:58;;;;;;;6.40;0.73;;;5.90;99.90;;;;;;5043629;28;20029;-83
2021/12/08 05:24:34;;;;;;;7.63;0.67;;;5.90;99.90;;;;;;5042120;28;20026;-82
2021/12/08 05:27:13;;;;;;;9.17;0.93;;;5.90;99.90;;;;;;5042111;28;20053;-82
2021/12/08 05:29:49;;;;;;;7.00;0.60;;;6.00;99.90;;;;;;5043454;28;20017;-80
2021/12/08 05:32:16;;;;;;;8.50;0.93;;;5.90;99.90;;;;;;5041015;28;20025;-82
2021/12/08 05:34:43;;;;;;;12.97;0.90;;;5.90;99.90;;;;;;5057661;28;20022;-82
2021/12/08 05:37:10;;;;;;;9.53;1.27;;;5.80;99.90;;;;;;5042366;28;20061;-80
2021/12/08 05:39:38;;;;;;;8.47;0.97;;;5.80;99.90;;;;;;5025407;28;20065;-80
2021/12/08 05:42:14;;;;;;;9.63;1.20;;;5.80;99.90;;;;;;5040175;28;20039;-81
2021/12/08 05:44:41;;;;;;;3.90;0.50;;;5.80;99.90;;;;;;5038842;28;20033;-81
2021/12/08 05:47:12;;;;;;;9.47;0.57;;;5.80;99.90;;;;;;5039025;28;20056;-81
2021/12/08 05:49:40;;;;;;;7.90;0.80;;;5.80;99.90;;;;;;5039145;28;20036;-81
2021/12/08 05:52:06;;;;;;;8.07;0.60;;;5.80;99.90;;;;;;5023704;28;20029;-81
2021/12/08 05:54:34;;;;;;;8.83;0.70;;;5.80;99.90;;;;;;5040152;28;20021;-82
2021/12/08 05:57:24;;;;;;;4.50;0.50;;;5.80;99.90;;;;;;5038956;28;20029;-82
2021/12/08 05:59:52;;;;;;;8.33;0.80;;;5.80;99.90;;;;;;5037321;28;20075;-82
2021/12/08 06:02:28;;;;;;;10.70;0.77;;;5.80;99.90;;;;;;5040031;28;20029;-80
2021/12/08 06:04:54;;;;;;;10.73;0.80;;;5.80;99.90;;;;;;5038904;28;20076;-82
2021/12/08 06:07:21;;;;;;;10.17;0.70;;;5.80;99.90;;;;;;5039007;28;20021;-79
2021/12/08 06:09:59;;;;;;;6.33;0.80;;;5.80;99.90;;;;;;5022445;28;20386;-81
2021/12/08 06:12:25;;;;;;;6.53;0.90;;;5.70;99.90;;;;;;5039786;28;20354;-82
2021/12/08 06:14:55;;;;;;;10.63;1.00;;;5.80;99.90;;;;;;5039932;28;20076;-80
2021/12/08 06:17:26;;;;;;;9.80;0.90;;;5.70;99.90;;;;;;5022847;28;20091;-80
2021/12/08 06:19:52;;;;;;;7.80;0.80;;;5.70;99.90;;;;;;5038170;28;20055;-79
2021/12/08 06:22:21;;;;;;;9.03;0.90;;;5.70;99.90;;;;;;5038442;28;20099;-81
2021/12/08 06:24:47;;;;;;;12.37;2.00;;;5.70;99.90;;;;;;5039044;28;20053;-79
2021/12/08 06:27:13;;;;;;;12.60;1.17;;;5.80;99.90;;;;;;5039478;28;20021;-81
2021/12/08 06:29:40;;;;;;;8.67;0.60;;;5.80;99.90;;;;;;5041041;28;20529;-80
2021/12/08 06:32:08;;;;;;;11.10;1.00;;;5.80;99.90;;;;;;5041500;28;20104;-80
2021/12/08 06:34:35;;;;;;;6.37;0.80;;;5.80;99.90;;;;;;5039990;28;20053;-80
2021/12/08 06:37:16;;;;;;;10.63;1.00;;;5.80;99.90;;;;;;5023962;28;20040;-81
2021/12/08 06:39:50;;;;;;;9.23;0.80;;;5.90;99.90;;;;;;5042811;28;20057;-80
2021/12/08 06:42:20;;;;;;;7.80;0.80;;;5.90;99.90;;;;;;5042233;28;20496;-80
2021/12/08 06:44:49;;;;;;;8.30;1.10;;;5.90;99.90;;;;;;5043396;28;20060;-82
2021/12/08 06:47:19;;;;;;;10.90;0.70;;;5.80;99.90;;;;;;5044077;28;20021;-80
2021/12/08 06:49:46;;;;;;;11.67;0.87;;;5.80;99.80;;;;;;5043123;28;20049;-80
2021/12/08 06:52:20;;;;;;;12.70;0.90;;;5.90;99.60;;;;;;5026003;28;20025;-81
2021/12/08 06:55:00;;;;;;;10.87;1.17;;;5.80;99.60;;;;;;5045930;28;20114;-81
2021/12/08 06:57:33;;;;;;;7.60;0.60;;;5.80;99.60;;;;;;5048550;28;20112;-81
2021/12/08 07:00:12;;;;;;;8.48;0.55;;;5.80;99.60;;;;;;5048388;28;20025;-81
2021/12/08 07:05:31;;;;;;;9.80;0.70;;;5.70;99.70;;;;;;5046508;28;20116;-81
2021/12/08 07:08:03;;;;;;;7.63;0.73;;;5.70;99.60;;;;;;5042954;28;20029;-80
2021/12/08 07:10:33;;;;;;;7.65;1.00;;;5.70;99.60;;;;;;5042089;28;20029;-80
2021/12/08 07:13:12;;;;;;;7.37;0.90;;;5.70;99.80;;;;;;5035149;28;20041;-81
2021/12/08 07:15:47;;;;;;;9.13;0.97;;;5.60;99.70;;;;;;5036054;28;20032;-81
2021/12/08 07:18:38;;;;;;;7.93;0.90;;;5.60;99.80;;;;;;5034426;28;20022;-80
2021/12/08 07:21:07;;;;;;;9.47;0.67;;;5.60;99.80;;;;;;5035211;28;20025;-80
2021/12/08 07:24:05;;;;;;;7.33;1.20;;;5.60;99.80;;;;;;5034340;28;20033;-82
2021/12/08 07:26:36;;;;;;;7.63;0.90;;;5.60;99.80;;;;;;5030320;28;20046;-80
2021/12/08 07:29:04;;;;;;;7.80;1.03;;;5.60;99.70;;;;;;5035883;28;20021;-81
2021/12/08 07:31:40;;;;;;;7.50;0.90;;;5.60;99.70;;;;;;5035553;28;20087;-81
2021/12/08 07:34:09;;;;;;;8.80;1.27;;;5.70;99.70;;;;;;5034731;28;20045;-81
2021/12/08 07:36:38;;;;;;;8.27;1.10;;;5.70;99.60;;;;;;5050678;28;20067;-82
2021/12/08 07:39:09;;;;;;;10.67;0.97;;;5.70;99.60;;;;;;5034441;28;20022;-82
2021/12/08 07:41:39;;;;;;;5.77;1.40;;;5.70;99.20;;;;;;5036060;28;20032;-82
2021/12/08 07:44:11;;;;;;;7.17;2.30;;;5.70;99.30;;;;;;5034524;28;20021;-81
2021/12/08 07:46:42;;;;;;;13.80;2.57;;;5.70;99.50;;;;;;5034478;28;20029;-81
2021/12/08 07:49:19;;;;;;;11.67;2.73;;;5.80;99.60;;;;;;5034322;28;20060;-82
2021/12/08 07:51:54;;;;;;;13.47;2.37;;;5.90;99.60;;;;;;5039448;28;20021;-83
2021/12/08 07:54:22;;;;;;;12.73;2.07;;;5.90;99.70;;;;;;5039414;28;20097;-83
2021/12/08 07:56:51;;;;;;;9.57;1.57;;;6.00;99.60;;;;;;5034808;28;20034;-83
2021/12/08 07:59:18;;;;;;;15.30;3.70;;;6.00;99.40;;;;;;5033042;28;20022;-82
2021/12/08 08:01:48;;;;;;;12.90;3.77;;;5.90;99.40;;;;;;5034300;28;20110;-83
2021/12/08 08:04:19;;;;;;;11.60;3.00;;;5.90;99.50;;;;;;5033199;28;20033;-83
2021/12/08 08:06:48;;;;;;;10.80;1.80;;;6.00;99.60;;;;;;5033417;28;20021;-82
2021/12/08 08:09:20;;;;;;;11.03;1.70;;;6.00;99.40;;;;;;5033029;28;20169;-83
2021/12/08 08:11:56;;;;;;;11.25;2.25;;;6.00;99.30;;;;;;5033089;28;20026;-81
2021/12/08 08:14:29;;;;;;;13.37;1.93;;;6.00;99.20;;;;;;5033163;28;20079;-83
2021/12/08 08:16:58;;;;;;;10.90;1.58;;;6.00;99.20;;;;;;5035200;28;20021;-81
2021/12/08 08:19:29;;;;;;;15.27;2.30;;;6.00;99.10;;;;;;5038191;28;20072;-83
2021/12/08 08:22:07;;;;;;;9.93;1.90;;;6.00;99.10;;;;;;5037476;28;20450;-82
2021/12/08 08:24:34;;;;;;;9.23;2.70;;;6.00;99.10;;;;;;5036744;28;20032;-81
2021/12/08 08:27:03;;;;;;;10.70;1.80;;;6.00;99.10;;;;;;5037877;28;20461;-82
2021/12/08 08:29:29;;;;;;;8.40;1.47;;;6.00;99.20;;;;;;5034886;28;20436;-83
2021/12/08 08:32:20;;;;;;;7.60;1.30;;;6.00;99.20;;;;;;5036758;28;20107;-82
2021/12/08 08:34:48;;;;;;;8.20;1.57;;;6.10;99.10;;;;;;5040632;28;20026;-82
2021/12/08 08:37:14;;;;;;;9.63;1.90;;;6.10;98.80;;;;;;5036976;28;20028;-82
2021/12/08 08:39:49;;;;;;;9.50;1.87;;;6.10;98.70;;;;;;5039169;28;20025;-82
2021/12/08 08:42:23;;;;;;;7.90;1.20;;;6.20;98.70;;;;;;5040949;28;20079;-83
2021/12/08 08:44:59;;;;;;;10.47;2.63;;;6.30;98.50;;;;;;5043638;28;20041;-82
2021/12/08 08:47:30;;;;;;;11.57;2.60;;;6.30;98.70;;;;;;5046722;28;20017;-80
2021/12/08 08:49:56;;;;;;;6.77;1.43;;;6.40;98.90;;;;;;5040244;28;20033;-83
2021/12/08 08:52:35;;;;;;;12.67;2.50;;;6.60;98.70;;;;;;5036627;28;20049;-82
2021/12/08 08:55:13;;;;;;;8.97;1.90;;;6.70;98.60;;;;;;5037373;28;20021;-84
2021/12/08 08:57:41;;;;;;;11.50;1.53;;;6.70;98.20;;;;;;5036505;28;20018;-82
2021/12/08 09:00:31;;;;;;;7.73;1.47;;;6.80;98.00;;;;;;5035324;28;20021;-83
2021/12/08 09:03:02;;;;;;;9.60;1.80;;;6.70;97.10;;;;;;5035784;28;20026;-81
2021/12/08 09:05:33;;;;;;;9.40;1.87;;;6.70;97.30;;;;;;5036243;28;20091;-82
2021/12/08 09:08:00;;;;;;;7.53;1.30;;;6.70;97.50;;;;;;5035802;28;20087;-81
2021/12/08 09:10:51;;;;;;;9.87;1.37;;;6.80;97.30;;;;;;5035571;28;20037;-81
2021/12/08 09:13:31;;;;;;;10.20;1.07;;;6.70;96.90;;;;;;5034938;28;20083;-81
2021/12/08 09:16:04;;;;;;;8.40;0.97;;;6.70;96.80;;;;;;5036398;28;20100;-82
2021/12/08 09:18:48;;;;;;;7.97;1.00;;;6.70;96.00;;;;;;5035637;28;20025;-82
2021/12/08 09:21:27;;;;;;;5.63;0.80;;;6.60;96.30;;;;;;5035173;28;20481;-81
2021/12/08 09:24:08;;;;;;;7.53;0.97;;;6.60;96.40;;;;;;5035161;28;20029;-82
2021/12/08 09:26:39;;;;;;;10.00;1.53;;;6.70;96.40;;;;;;5036394;28;20520;-82
2021/12/08 09:29:13;;;;;;;9.57;1.33;;;6.70;96.10;;;;;;5035528;28;20036;-81
2021/12/08 09:31:44;;;;;;;5.93;1.00;;;6.70;96.50;;;;;;5035031;28;20034;-81
2021/12/08 09:34:21;;;;;;;8.63;1.00;;;6.80;96.60;;;;;;5035905;28;20470;-81
2021/12/08 09:36:52;;;;;;;10.57;0.90;;;6.80;96.50;;;;;;5036476;28;20037;-81
2021/12/08 09:39:27;;;;;;;7.90;1.10;;;6.80;96.50;;;;;;5034848;28;20018;-81
2021/12/08 09:42:19;;;;;;;6.70;0.80;;;6.80;96.50;;;;;;5035856;28;20025;-82
2021/12/08 09:44:48;;;;;;;8.53;1.00;;;7.00;96.40;;;;;;5034950;28;20075;-81
2021/12/08 09:47:15;;;;;;;8.03;1.20;;;7.00;96.20;;;;;;5033923;28;20025;-81
2021/12/08 09:49:42;;;;;;;7.57;0.80;;;7.10;96.00;;;;;;5034411;28;20449;-81
2021/12/08 09:52:09;;;;;;;6.37;0.87;;;7.20;95.00;;;;;;5018119;28;20041;-80
2021/12/08 09:54:37;;;;;;;9.30;1.50;;;7.40;94.90;;;;;;5033019;28;20116;-82
2021/12/08 09:57:07;;;;;;;10.70;0.80;;;7.50;95.10;;;;;;5035144;28;20032;-82
2021/12/08 09:59:34;;;;;;;5.97;0.93;;;7.60;94.50;;;;;;5019084;28;20358;-82
2021/12/08 10:02:04;;;;;;;8.17;0.80;;;7.90;95.10;;;;;;5017524;28;20036;-82
2021/12/08 10:04:30;;;;;;;6.90;0.73;;;8.30;94.20;;;;;;5033762;28;20444;-82
2021/12/08 10:06:59;;;;;;;5.97;0.80;;;8.60;93.60;;;;;;5033969;28;20021;-82
2021/12/08 10:09:25;;;;;;;6.20;0.70;;;9.00;93.50;;;;;;5033554;28;20116;-82
2021/12/08 10:11:54;;;;;;;7.10;0.70;;;9.30;92.30;;;;;;5034436;28;20169;-81
2021/12/08 10:14:20;;;;;;;5.50;1.17;;;9.70;91.20;;;;;;5034482;28;20034;-82
2021/12/08 10:16:47;;;;;;;5.67;0.80;;;9.90;91.40;;;;;;5034253;28;20033;-82
2021/12/08 10:19:15;;;;;;;7.97;0.87;;;10.00;89.10;;;;;;5034383;28;20084;-82
2021/12/08 10:21:41;;;;;;;6.50;0.93;;;10.00;90.00;;;;;;5034367;28;20075;-82
2021/12/08 10:24:20;;;;;;;3.60;0.60;;;9.90;88.90;;;;;;5033487;28;20029;-81
2021/12/08 10:26:49;;;;;;;5.50;0.53;;;9.70;84.20;;;;;;5033640;28;20489;-81
2021/12/08 10:29:14;;;;;;;4.20;0.80;;;9.50;86.60;;;;;;5034495;28;20501;-81
2021/12/08 10:31:48;;;;;;;4.53;0.50;;;9.50;85.90;;;;;;5034816;28;20030;-81
2021/12/08 10:37:00;;;;;;;4.20;0.70;;;9.60;85.00;;;;;;5035290;28;20072;-82
2021/12/08 10:39:32;;;;;;;5.97;0.60;;;9.90;86.10;;;;;;5033621;28;20026;-81
2021/12/08 10:42:17;;;;;;;7.23;0.80;;;10.00;87.20;;;;;;5033936;28;20034;-82
2021/12/08 10:45:07;;;;;;;5.20;0.50;;;10.00;84.20;;;;;;5033959;28;20461;-81
2021/12/08 10:47:37;;;;;;;6.10;0.80;;;9.90;84.20;;;;;;5035184;28;20032;-81
2021/12/08 10:55:39;;;;;;;8.80;0.70;;;8.90;80.20;;;;;;5035280;28;20068;-82
2021/12/08 10:58:05;;;;;;;7.57;0.73;;;8.70;82.30;;;;;;5017006;28;20029;-81
2021/12/08 11:00:40;;;;;;;5.80;0.53;;;8.60;83.50;;;;;;5016777;28;20076;-81
2021/12/08 11:03:08;;;;;;;6.87;0.60;;;8.50;83.50;;;;;;5035130;28;20040;-82
2021/12/08 11:05:50;;;;;;;4.37;0.53;;;8.30;84.20;;;;;;5032654;28;20060;-81
2021/12/08 11:08:19;;;;;;;4.53;0.50;;;8.30;84.10;;;;;;5034059;28;20373;-80
2021/12/08 11:10:50;;;;;;;5.77;0.70;;;8.20;84.80;;;;;;5036289;28;20060;-81
2021/12/08 11:13:19;;;;;;;6.20;0.77;;;8.20;84.70;;;;;;5035151;28;20467;-81
2021/12/08 11:15:46;;;;;;;5.33;0.60;;;8.10;84.10;;;;;;5033803;28;20025;-82
2021/12/08 11:18:18;;;;;;;9.20;0.63;;;8.00;84.30;;;;;;5033315;28;20021;-82
2021/12/08 11:21:00;;;;;;;8.67;0.73;;;7.90;84.90;;;;;;5033383;28;20129;-81
2021/12/08 11:23:42;;;;;;;6.37;0.40;;;7.70;84.30;;;;;;5034628;28;20040;-81
2021/12/08 11:26:17;;;;;;;5.00;0.65;;;7.60;85.10;;;;;;5035719;28;20140;-81
2021/12/08 11:28:44;;;;;;;7.00;0.67;;;7.50;85.80;;;;;;5033754;28;20030;-81
2021/12/08 11:31:13;;;;;;;5.00;0.47;;;7.50;86.50;;;;;;5035894;28;20121;-82
2021/12/08 11:33:44;;;;;;;7.70;0.50;;;7.50;85.60;;;;;;5034140;28;20025;-82
2021/12/08 11:36:21;;;;;;;7.17;0.50;;;7.60;85.90;;;;;;5034111;28;20021;-82
2021/12/08 11:38:49;;;;;;;7.57;0.63;;;7.70;85.50;;;;;;5034588;28;20029;-82
2021/12/08 11:41:34;;;;;;;4.53;0.53;;;7.80;86.60;;;;;;5034325;28;20065;-82
2021/12/08 11:44:04;;;;;;;6.37;0.93;;;8.00;87.10;;;;;;5034719;28;20026;-81
2021/12/08 11:46:36;;;;;;;5.30;0.60;;;8.10;86.60;;;;;;5033903;28;20024;-82
2021/12/08 11:49:04;;;;;;;4.00;0.50;;;8.10;84.50;;;;;;5033215;28;20025;-82
2021/12/08 11:51:44;;;;;;;4.67;0.60;;;7.90;85.80;;;;;;5034569;28;20093;-81
2021/12/08 11:54:34;;;;;;;3.93;0.43;;;7.90;85.90;;;;;;5033506;28;20131;-81
2021/12/08 11:57:17;;;;;;;5.10;0.40;;;8.00;86.80;;;;;;5033989;28;20022;-83
2021/12/08 11:59:48;;;;;;;7.55;0.65;;;8.10;86.10;;;;;;5035462;28;20021;-83
2021/12/08 12:02:14;;;;;;;4.57;0.53;;;8.10;88.00;;;;;;5034164;28;20159;-82
2021/12/08 12:04:42;;;;;;;4.23;0.60;;;8.10;84.50;;;;;;5035003;28;20033;-80
2021/12/08 12:07:13;;;;;;;7.00;0.70;;;8.00;85.50;;;;;;5032924;28;20033;-81
2021/12/08 12:09:40;;;;;;;7.93;0.67;;;8.00;87.40;;;;;;5032916;28;20103;-82
2021/12/08 12:12:06;;;;;;;8.57;1.13;;;7.90;86.60;;;;;;5032381;28;20485;-81
2021/12/08 12:14:32;;;;;;;7.10;0.60;;;7.80;86.70;;;;;;5031952;28;20025;-83
2021/12/08 12:16:58;;;;;;;9.47;0.70;;;7.80;86.30;;;;;;5034757;28;20029;-82
2021/12/08 12:19:29;;;;;;;8.40;0.60;;;7.70;86.60;;;;;;5045099;28;20036;-81
2021/12/08 12:22:20;;;;;;;6.37;0.80;;;7.70;88.30;;;;;;5039064;28;20064;-81
2021/12/08 12:25:37;;;;;;;6.13;0.57;;;7.70;89.90;;;;;;5038460;28;20067;-82
2021/12/08 12:28:47;;;;;;;4.37;0.50;;;7.70;88.90;;;;;;5027198;28;20555;-84
2021/12/08 12:31:51;;;;;;;4.40;0.60;;;7.80;90.20;;;;;;5026946;28;20041;-81
2021/12/08 12:34:38;;;;;;;5.82;0.40;;;7.80;90.30;;;;;;5029687;28;20099;-83
2021/12/08 12:37:28;;;;;;;3.93;0.50;;;7.80;89.90;;;;;;5037710;28;20162;-82
2021/12/08 12:39:57;;;;;;;5.50;0.60;;;7.90;90.10;;;;;;5030567;28;20117;-82
2021/12/08 12:42:24;;;;;;;4.33;0.50;;;7.90;90.20;;;;;;5036976;28;20030;-83
2021/12/08 12:45:02;;;;;;;4.00;0.40;;;7.90;90.00;;;;;;5038263;28;20033;-83
2021/12/08 12:47:30;;;;;;;7.30;0.70;;;8.00;90.00;;;;;;5038522;28;20026;-83
2021/12/08 12:50:20;;;;;;;5.27;0.60;;;8.00;90.50;;;;;;5037149;28;20022;-82
2021/12/08 12:52:48;;;;;;;4.63;0.63;;;8.00;90.80;;;;;;5036731;28;20022;-82
2021/12/08 12:55:15;;;;;;;4.03;0.70;;;8.10;90.60;;;;;;5035873;28;20032;-83
2021/12/08 12:58:06;;;;;;;5.03;0.50;;;8.10;90.60;;;;;;5036100;28;20029;-82
2021/12/08 13:00:39;;;;;;;6.23;0.90;;;8.10;90.10;;;;;;5037985;28;20504;-79
2021/12/08 13:03:05;;;;;;;;;;;8.20;90.50;;;;;;5037818;28;20033;-82
2021/12/08 13:05:50;;;;;;;6.07;0.87;;;8.20;90.00;;;;;;5035625;28;19905;-82
2021/12/08 13:08:30;;;;;;;7.03;0.63;;;8.10;90.10;;;;;;5036192;28;20401;-83
2021/12/08 13:10:59;;;;;;;8.40;1.00;;;8.10;90.00;;;;;;5036305;28;20093;-82
2021/12/08 13:13:25;;;;;;;3.90;0.70;;;8.10;90.00;;;;;;5053593;28;20022;-82
2021/12/08 13:15:51;;;;;;;6.83;0.90;;;8.00;87.40;;;;;;5035826;28;20028;-80
2021/12/08 13:18:19;;;;;;;4.23;0.50;;;7.90;86.20;;;;;;5036318;28;20034;-82
2021/12/08 13:20:58;;;;;;;4.17;0.60;;;7.90;86.70;;;;;;5036007;28;20068;-82
2021/12/08 13:23:28;;;;;;;6.27;0.70;;;7.90;87.90;;;;;;5037862;28;20026;-82
2021/12/08 13:26:05;;;;;;;4.13;0.73;;;7.80;88.20;;;;;;5035925;28;20429;-82
2021/12/08 13:31:20;;;;;;;5.13;0.80;;;7.80;88.00;;;;;;5037110;28;20063;-81
2021/12/08 13:33:53;;;;;;;7.78;1.05;;;7.80;89.10;;;;;;5036953;28;20025;-82
2021/12/08 13:36:23;;;;;;;7.93;1.20;;;7.80;88.20;;;;;;5036359;28;20081;-84
2021/12/08 13:38:57;;;;;;;5.30;0.60;;;7.70;88.90;;;;;;5035738;28;20061;-81
2021/12/08 13:41:25;;;;;;;7.17;0.70;;;7.80;88.90;;;;;;5037262;28;20087;-85
2021/12/08 13:43:51;;;;;;;5.23;0.60;;;7.80;89.10;;;;;;5036439;28;20113;-83
2021/12/08 13:46:42;;;;;;;5.73;0.60;;;7.80;90.40;;;;;;5035508;28;20421;-82
2021/12/08 13:49:26;;;;;;;3.80;0.53;;;7.90;90.90;;;;;;5033809;28;20052;-84
2021/12/08 13:52:00;;;;;;;3.73;0.60;;;7.90;89.90;;;;;;5037174;28;20025;-82
2021/12/08 13:54:30;;;;;;;3.47;0.50;;;7.90;88.50;;;;;;5035722;28;20033;-84
2021/12/08 13:56:57;;;;;;;5.43;0.60;;;7.90;89.00;;;;;;5035631;28;20022;-83
2021/12/08 13:59:47;;;;;;;6.50;0.80;;;7.90;89.10;;;;;;5035792;28;20120;-84
2021/12/08 14:02:36;;;;;;;7.43;0.80;;;8.00;90.10;;;;;;5036273;28;20036;-85
2021/12/08 14:05:13;;;;;;;4.93;0.70;;;8.00;90.00;;;;;;5035477;28;20018;-83
2021/12/08 14:07:43;;;;;;;3.47;0.83;;;8.00;89.30;;;;;;5036108;28;20484;-83